sensor_id;sensor_type;location;lat;lon;timestamp;temperature;humidity
6307;DHT22;3186;54.062;9.962;2023-05-07T00:01:02;10.90;99.90
6307;DHT22;3186;54.062;9.962;2023-05-07T00:03:27;10.10;99.90
6307;DHT22;3186;54.062;9.962;2023-05-07T00:05:54;10.10;99.90
6307;DHT22;3186;54.062;9.962;2023-05-07T00:08:20;10.00;99.90
6307;DHT22;3186;54.062;9.962;2023-05-07T00:10:47;10.30;99.90
6307;DHT22;3186;54.062;9.962;2023-05-07T00:13:14;10.20;99.90
6307;DHT22;3186;54.062;9.962;2023-05-07T00:15:40;11.50;99.90
6307;DHT22;3186;54.062;9.962;2023-05-07T00:18:06;10.50;99.90
6307;DHT22;3186;54.062;9.962;2023-05-07T00:20:31;8.50;99.90
6307;DHT22;3186;54.062;9.962;2023-05-07T00:22:57;10.80;99.90
6307;DHT22;3186;54.062;9.962;2023-05-07T00:25:23;12.50;99.90
6307;DHT22;3186;54.062;9.962;2023-05-07T00:27:48;11.90;99.90
6307;DHT22;3186;54.062;9.962;2023-05-07T00:30:14;12.20;99.90
6307;DHT22;3186;54.062;9.962;2023-05-07T00:32:40;10.20;99.90
6307;DHT22;3186;54.062;9.962;2023-05-07T00:35:07;11.50;99.90
6307;DHT22;3186;54.062;9.962;2023-05-07T00:37:32;10.20;99.90
6307;DHT22;3186;54.062;9.962;2023-05-07T00:39:58;12.10;99.90
6307;DHT22;3186;54.062;9.962;2023-05-07T00:42:24;9.90;99.90
6307;DHT22;3186;54.062;9.962;2023-05-07T00:44:50;12.60;99.90
6307;DHT22;3186;54.062;9.962;2023-05-07T00:47:16;10.30;99.90
6307;DHT22;3186;54.062;9.962;2023-05-07T00:49:43;10.00;99.90
6307;DHT22;3186;54.062;9.962;2023-05-07T00:52:15;10.10;99.90
6307;DHT22;3186;54.062;9.962;2023-05-07T00:54:41;11.40;99.90
6307;DHT22;3186;54.062;9.962;2023-05-07T00:57:11;11.40;99.90
6307;DHT22;3186;54.062;9.962;2023-05-07T00:59:37;9.80;99.90
6307;DHT22;3186;54.062;9.962;2023-05-07T01:02:03;10.50;99.90
6307;DHT22;3186;54.062;9.962;2023-05-07T01:04:31;12.40;99.90
6307;DHT22;3186;54.062;9.962;2023-05-07T01:06:58;10.20;99.90
6307;DHT22;3186;54.062;9.962;2023-05-07T01:09:25;11.00;99.90
6307;DHT22;3186;54.062;9.962;2023-05-07T01:11:56;12.40;99.90
6307;DHT22;3186;54.062;9.962;2023-05-07T01:14:23;10.40;99.90
6307;DHT22;3186;54.062;9.962;2023-05-07T01:16:50;10.20;99.90
6307;DHT22;3186;54.062;9.962;2023-05-07T01:19:19;11.90;99.90
6307;DHT22;3186;54.062;9.962;2023-05-07T01:21:47;11.00;99.90
6307;DHT22;3186;54.062;9.962;2023-05-07T01:24:15;12.00;99.90
6307;DHT22;3186;54.062;9.962;2023-05-07T01:26:42;11.00;99.90
6307;DHT22;3186;54.062;9.962;2023-05-07T01:29:08;9.80;99.90
6307;DHT22;3186;54.062;9.962;2023-05-07T01:31:34;10.20;99.90
6307;DHT22;3186;54.062;9.962;2023-05-07T01:34:02;10.30;99.90
6307;DHT22;3186;54.062;9.962;2023-05-07T01:36:29;10.20;99.90
6307;DHT22;3186;54.062;9.962;2023-05-07T01:38:56;10.20;99.90
6307;DHT22;3186;54.062;9.962;2023-05-07T01:41:23;13.00;99.90
6307;DHT22;3186;54.062;9.962;2023-05-07T01:43:50;10.40;99.90
6307;DHT22;3186;54.062;9.962;2023-05-07T01:46:18;11.70;99.90
6307;DHT22;3186;54.062;9.962;2023-05-07T01:48:45;12.90;99.90
6307;DHT22;3186;54.062;9.962;2023-05-07T01:51:11;11.60;99.90
6307;DHT22;3186;54.062;9.962;2023-05-07T01:53:39;10.40;99.90
6307;DHT22;3186;54.062;9.962;2023-05-07T01:56:06;10.90;99.90
6307;DHT22;3186;54.062;9.962;2023-05-07T01:58:34;12.70;99.90
6307;DHT22;3186;54.062;9.962;2023-05-07T02:01:00;10.50;99.90
6307;DHT22;3186;54.062;9.962;2023-05-07T02:03:26;10.20;99.90
6307;DHT22;3186;54.062;9.962;2023-05-07T02:06:04;11.90;99.90
6307;DHT22;3186;54.062;9.962;2023-05-07T02:08:39;10.20;99.90
6307;DHT22;3186;54.062;9.962;2023-05-07T02:11:05;10.80;99.90
6307;DHT22;3186;54.062;9.962;2023-05-07T02:13:33;12.00;99.90
6307;DHT22;3186;54.062;9.962;2023-05-07T02:16:03;10.00;99.90
6307;DHT22;3186;54.062;9.962;2023-05-07T02:18:29;10.10;99.90
6307;DHT22;3186;54.062;9.962;2023-05-07T02:20:55;12.30;99.90
6307;DHT22;3186;54.062;9.962;2023-05-07T02:23:21;9.70;99.90
6307;DHT22;3186;54.062;9.962;2023-05-07T02:25:50;11.40;99.90
6307;DHT22;3186;54.062;9.962;2023-05-07T02:28:16;12.00;99.90
6307;DHT22;3186;54.062;9.962;2023-05-07T02:30:49;12.20;99.90
6307;DHT22;3186;54.062;9.962;2023-05-07T02:33:15;12.50;99.90
6307;DHT22;3186;54.062;9.962;2023-05-07T02:35:41;12.60;99.90
6307;DHT22;3186;54.062;9.962;2023-05-07T02:38:07;11.60;99.90
6307;DHT22;3186;54.062;9.962;2023-05-07T02:40:34;9.90;99.90
6307;DHT22;3186;54.062;9.962;2023-05-07T02:43:04;12.30;99.90
6307;DHT22;3186;54.062;9.962;2023-05-07T02:45:29;11.10;99.90
6307;DHT22;3186;54.062;9.962;2023-05-07T02:47:58;11.30;99.90
6307;DHT22;3186;54.062;9.962;2023-05-07T02:50:27;10.10;99.90
6307;DHT22;3186;54.062;9.962;2023-05-07T02:52:53;9.70;99.90
6307;DHT22;3186;54.062;9.962;2023-05-07T02:55:22;11.00;99.90
6307;DHT22;3186;54.062;9.962;2023-05-07T02:57:48;11.10;99.90
6307;DHT22;3186;54.062;9.962;2023-05-07T03:00:17;11.60;99.90
6307;DHT22;3186;54.062;9.962;2023-05-07T03:03:06;10.10;99.90
6307;DHT22;3186;54.062;9.962;2023-05-07T03:05:32;10.60;99.90
6307;DHT22;3186;54.062;9.962;2023-05-07T03:07:58;10.30;99.90
6307;DHT22;3186;54.062;9.962;2023-05-07T03:10:27;10.60;99.90
6307;DHT22;3186;54.062;9.962;2023-05-07T03:12:53;10.20;99.90
6307;DHT22;3186;54.062;9.962;2023-05-07T03:15:18;10.10;99.90
6307;DHT22;3186;54.062;9.962;2023-05-07T03:17:44;10.00;99.90
6307;DHT22;3186;54.062;9.962;2023-05-07T03:20:10;11.30;99.90
6307;DHT22;3186;54.062;9.962;2023-05-07T03:22:36;10.00;99.90
6307;DHT22;3186;54.062;9.962;2023-05-07T03:25:02;9.90;99.90
6307;DHT22;3186;54.062;9.962;2023-05-07T03:27:28;10.10;99.90
6307;DHT22;3186;54.062;9.962;2023-05-07T03:29:54;11.40;99.90
6307;DHT22;3186;54.062;9.962;2023-05-07T03:32:24;10.00;99.90
6307;DHT22;3186;54.062;9.962;2023-05-07T03:34:50;9.60;99.90
6307;DHT22;3186;54.062;9.962;2023-05-07T03:37:16;10.40;99.90
6307;DHT22;3186;54.062;9.962;2023-05-07T03:39:50;10.30;99.90
6307;DHT22;3186;54.062;9.962;2023-05-07T03:42:17;10.20;99.90
6307;DHT22;3186;54.062;9.962;2023-05-07T03:44:43;11.40;99.90
6307;DHT22;3186;54.062;9.962;2023-05-07T03:47:09;11.40;99.90
6307;DHT22;3186;54.062;9.962;2023-05-07T03:49:36;10.20;99.90
6307;DHT22;3186;54.062;9.962;2023-05-07T03:52:02;11.60;99.90
6307;DHT22;3186;54.062;9.962;2023-05-07T03:54:28;10.30;99.90
6307;DHT22;3186;54.062;9.962;2023-05-07T03:56:54;10.30;99.90
6307;DHT22;3186;54.062;9.962;2023-05-07T03:59:21;10.30;99.90
6307;DHT22;3186;54.062;9.962;2023-05-07T04:01:48;9.80;99.90
6307;DHT22;3186;54.062;9.962;2023-05-07T04:04:19;9.80;99.90
6307;DHT22;3186;54.062;9.962;2023-05-07T04:06:45;12.80;99.90
6307;DHT22;3186;54.062;9.962;2023-05-07T04:09:12;12.60;99.90
6307;DHT22;3186;54.062;9.962;2023-05-07T04:11:38;11.30;99.90
6307;DHT22;3186;54.062;9.962;2023-05-07T04:14:09;10.00;99.90
6307;DHT22;3186;54.062;9.962;2023-05-07T04:16:36;10.40;99.90
6307;DHT22;3186;54.062;9.962;2023-05-07T04:19:02;10.80;99.90
6307;DHT22;3186;54.062;9.962;2023-05-07T04:21:28;9.70;99.90
6307;DHT22;3186;54.062;9.962;2023-05-07T04:23:58;11.40;99.90
6307;DHT22;3186;54.062;9.962;2023-05-07T04:26:24;10.60;99.90
6307;DHT22;3186;54.062;9.962;2023-05-07T04:28:50;11.40;99.90
6307;DHT22;3186;54.062;9.962;2023-05-07T04:31:16;9.80;99.90
6307;DHT22;3186;54.062;9.962;2023-05-07T04:33:43;12.60;99.90
6307;DHT22;3186;54.062;9.962;2023-05-07T04:36:12;10.40;99.90
6307;DHT22;3186;54.062;9.962;2023-05-07T04:38:45;11.60;99.90
6307;DHT22;3186;54.062;9.962;2023-05-07T04:41:12;12.80;99.90
6307;DHT22;3186;54.062;9.962;2023-05-07T04:43:40;10.10;99.90
6307;DHT22;3186;54.062;9.962;2023-05-07T04:46:07;12.40;99.90
6307;DHT22;3186;54.062;9.962;2023-05-07T04:48:33;11.20;99.90
6307;DHT22;3186;54.062;9.962;2023-05-07T04:51:03;11.80;99.90
6307;DHT22;3186;54.062;9.962;2023-05-07T04:53:29;11.50;99.90
6307;DHT22;3186;54.062;9.962;2023-05-07T04:55:57;12.60;99.90
6307;DHT22;3186;54.062;9.962;2023-05-07T04:58:25;11.00;99.90
6307;DHT22;3186;54.062;9.962;2023-05-07T05:00:52;10.00;99.90
6307;DHT22;3186;54.062;9.962;2023-05-07T05:03:18;11.90;99.90
6307;DHT22;3186;54.062;9.962;2023-05-07T05:05:43;11.00;99.90
6307;DHT22;3186;54.062;9.962;2023-05-07T05:08:10;10.50;99.90
6307;DHT22;3186;54.062;9.962;2023-05-07T05:10:38;10.10;99.90
6307;DHT22;3186;54.062;9.962;2023-05-07T05:13:05;11.60;99.90
6307;DHT22;3186;54.062;9.962;2023-05-07T05:15:31;9.90;99.90
6307;DHT22;3186;54.062;9.962;2023-05-07T05:17:57;10.80;99.90
6307;DHT22;3186;54.062;9.962;2023-05-07T05:20:22;10.90;99.90
6307;DHT22;3186;54.062;9.962;2023-05-07T05:22:48;11.30;99.90
6307;DHT22;3186;54.062;9.962;2023-05-07T05:25:14;10.10;99.90
6307;DHT22;3186;54.062;9.962;2023-05-07T05:27:40;10.30;99.90
6307;DHT22;3186;54.062;9.962;2023-05-07T05:30:06;9.70;99.90
6307;DHT22;3186;54.062;9.962;2023-05-07T05:32:34;10.30;99.90
6307;DHT22;3186;54.062;9.962;2023-05-07T05:34:59;10.70;99.90
6307;DHT22;3186;54.062;9.962;2023-05-07T05:37:26;10.20;99.90
6307;DHT22;3186;54.062;9.962;2023-05-07T05:39:53;12.60;99.90
6307;DHT22;3186;54.062;9.962;2023-05-07T05:42:21;9.70;99.90
6307;DHT22;3186;54.062;9.962;2023-05-07T05:44:49;10.30;99.90
6307;DHT22;3186;54.062;9.962;2023-05-07T05:47:15;11.10;99.90
6307;DHT22;3186;54.062;9.962;2023-05-07T05:49:42;11.00;99.90
6307;DHT22;3186;54.062;9.962;2023-05-07T05:52:14;12.70;99.90
6307;DHT22;3186;54.062;9.962;2023-05-07T05:54:40;9.90;99.90
6307;DHT22;3186;54.062;9.962;2023-05-07T05:57:05;10.20;99.90
6307;DHT22;3186;54.062;9.962;2023-05-07T05:59:32;11.10;99.90
6307;DHT22;3186;54.062;9.962;2023-05-07T06:02:00;12.50;99.90
6307;DHT22;3186;54.062;9.962;2023-05-07T06:04:27;10.50;99.90
6307;DHT22;3186;54.062;9.962;2023-05-07T06:06:52;10.40;99.90
6307;DHT22;3186;54.062;9.962;2023-05-07T06:09:19;10.50;99.90
6307;DHT22;3186;54.062;9.962;2023-05-07T06:11:48;10.20;99.90
6307;DHT22;3186;54.062;9.962;2023-05-07T06:14:17;11.80;99.90
6307;DHT22;3186;54.062;9.962;2023-05-07T06:16:43;10.20;99.90
6307;DHT22;3186;54.062;9.962;2023-05-07T06:19:10;11.00;99.90
6307;DHT22;3186;54.062;9.962;2023-05-07T06:21:38;12.80;99.90
6307;DHT22;3186;54.062;9.962;2023-05-07T06:24:04;11.30;99.90
6307;DHT22;3186;54.062;9.962;2023-05-07T06:26:30;10.30;99.90
6307;DHT22;3186;54.062;9.962;2023-05-07T06:28:56;12.30;99.90
6307;DHT22;3186;54.062;9.962;2023-05-07T06:31:23;11.70;99.90
6307;DHT22;3186;54.062;9.962;2023-05-07T06:33:59;10.20;99.90
6307;DHT22;3186;54.062;9.962;2023-05-07T06:36:31;12.60;99.90
6307;DHT22;3186;54.062;9.962;2023-05-07T06:39:00;10.30;99.90
6307;DHT22;3186;54.062;9.962;2023-05-07T06:41:25;10.30;99.90
6307;DHT22;3186;54.062;9.962;2023-05-07T06:43:51;10.40;99.90
6307;DHT22;3186;54.062;9.962;2023-05-07T06:46:38;10.40;99.90
6307;DHT22;3186;54.062;9.962;2023-05-07T06:49:05;10.40;99.90
6307;DHT22;3186;54.062;9.962;2023-05-07T06:51:31;10.50;99.90
6307;DHT22;3186;54.062;9.962;2023-05-07T06:54:01;11.20;99.90
6307;DHT22;3186;54.062;9.962;2023-05-07T06:56:27;10.40;99.90
6307;DHT22;3186;54.062;9.962;2023-05-07T06:58:53;10.30;99.90
6307;DHT22;3186;54.062;9.962;2023-05-07T07:01:19;12.30;99.90
6307;DHT22;3186;54.062;9.962;2023-05-07T07:03:45;11.10;99.90
6307;DHT22;3186;54.062;9.962;2023-05-07T07:06:11;11.80;99.90
6307;DHT22;3186;54.062;9.962;2023-05-07T07:08:37;10.60;99.90
6307;DHT22;3186;54.062;9.962;2023-05-07T07:11:05;10.60;99.90
6307;DHT22;3186;54.062;9.962;2023-05-07T07:13:31;10.60;99.90
6307;DHT22;3186;54.062;9.962;2023-05-07T07:18:23;10.70;99.90
6307;DHT22;3186;54.062;9.962;2023-05-07T07:20:49;10.70;99.90
6307;DHT22;3186;54.062;9.962;2023-05-07T07:23:15;10.90;99.90
6307;DHT22;3186;54.062;9.962;2023-05-07T07:25:41;10.70;99.90
6307;DHT22;3186;54.062;9.962;2023-05-07T07:28:07;12.10;99.90
6307;DHT22;3186;54.062;9.962;2023-05-07T07:30:33;8.70;99.90
6307;DHT22;3186;54.062;9.962;2023-05-07T07:33:01;12.80;99.90
6307;DHT22;3186;54.062;9.962;2023-05-07T07:35:31;10.70;99.90
6307;DHT22;3186;54.062;9.962;2023-05-07T07:37:58;10.60;99.90
6307;DHT22;3186;54.062;9.962;2023-05-07T07:40:24;11.80;99.90
6307;DHT22;3186;54.062;9.962;2023-05-07T07:42:53;12.50;99.90
6307;DHT22;3186;54.062;9.962;2023-05-07T07:45:19;10.80;99.90
6307;DHT22;3186;54.062;9.962;2023-05-07T07:47:47;11.20;99.90
6307;DHT22;3186;54.062;9.962;2023-05-07T07:50:15;11.40;99.90
6307;DHT22;3186;54.062;9.962;2023-05-07T07:52:42;11.70;99.90
6307;DHT22;3186;54.062;9.962;2023-05-07T07:55:13;13.20;99.90
6307;DHT22;3186;54.062;9.962;2023-05-07T07:57:43;13.00;99.90
6307;DHT22;3186;54.062;9.962;2023-05-07T08:00:10;12.40;99.90
6307;DHT22;3186;54.062;9.962;2023-05-07T08:02:42;11.60;99.90
6307;DHT22;3186;54.062;9.962;2023-05-07T08:05:09;11.40;99.90
6307;DHT22;3186;54.062;9.962;2023-05-07T08:07:35;14.10;99.90
6307;DHT22;3186;54.062;9.962;2023-05-07T08:10:04;11.80;99.90
6307;DHT22;3186;54.062;9.962;2023-05-07T08:12:31;12.10;99.90
6307;DHT22;3186;54.062;9.962;2023-05-07T08:14:58;14.60;99.90
6307;DHT22;3186;54.062;9.962;2023-05-07T08:17:24;11.60;99.90
6307;DHT22;3186;54.062;9.962;2023-05-07T08:19:50;12.30;99.90
6307;DHT22;3186;54.062;9.962;2023-05-07T08:22:16;14.00;99.90
6307;DHT22;3186;54.062;9.962;2023-05-07T08:24:43;11.90;99.90
6307;DHT22;3186;54.062;9.962;2023-05-07T08:27:10;12.40;99.90
6307;DHT22;3186;54.062;9.962;2023-05-07T08:29:39;12.00;99.90
6307;DHT22;3186;54.062;9.962;2023-05-07T08:32:10;12.50;99.90
6307;DHT22;3186;54.062;9.962;2023-05-07T08:34:43;13.90;99.90
6307;DHT22;3186;54.062;9.962;2023-05-07T08:37:17;14.70;99.90
6307;DHT22;3186;54.062;9.962;2023-05-07T08:39:44;12.50;99.90
6307;DHT22;3186;54.062;9.962;2023-05-07T08:42:17;12.70;99.90
6307;DHT22;3186;54.062;9.962;2023-05-07T08:44:49;13.30;99.90
6307;DHT22;3186;54.062;9.962;2023-05-07T08:47:32;13.80;99.90
6307;DHT22;3186;54.062;9.962;2023-05-07T08:50:02;12.40;99.90
6307;DHT22;3186;54.062;9.962;2023-05-07T08:52:28;13.00;99.90
6307;DHT22;3186;54.062;9.962;2023-05-07T08:55:00;12.90;99.90
6307;DHT22;3186;54.062;9.962;2023-05-07T08:57:38;12.40;99.90
6307;DHT22;3186;54.062;9.962;2023-05-07T09:00:13;15.10;99.90
6307;DHT22;3186;54.062;9.962;2023-05-07T09:02:53;13.10;99.90
6307;DHT22;3186;54.062;9.962;2023-05-07T09:05:25;15.30;99.90
6307;DHT22;3186;54.062;9.962;2023-05-07T09:08:07;14.20;99.90
6307;DHT22;3186;54.062;9.962;2023-05-07T09:10:38;14.50;99.90
6307;DHT22;3186;54.062;9.962;2023-05-07T09:13:05;14.60;99.90
6307;DHT22;3186;54.062;9.962;2023-05-07T09:15:42;15.40;99.90
6307;DHT22;3186;54.062;9.962;2023-05-07T09:18:08;14.50;99.90
6307;DHT22;3186;54.062;9.962;2023-05-07T09:20:41;13.00;99.90
6307;DHT22;3186;54.062;9.962;2023-05-07T09:23:24;12.70;99.90
6307;DHT22;3186;54.062;9.962;2023-05-07T09:26:09;13.20;99.90
6307;DHT22;3186;54.062;9.962;2023-05-07T09:28:51;16.10;99.90
6307;DHT22;3186;54.062;9.962;2023-05-07T09:31:29;16.20;99.90
6307;DHT22;3186;54.062;9.962;2023-05-07T09:34:00;13.70;99.90
6307;DHT22;3186;54.062;9.962;2023-05-07T09:36:48;13.70;99.90
6307;DHT22;3186;54.062;9.962;2023-05-07T09:39:52;14.10;99.90
6307;DHT22;3186;54.062;9.962;2023-05-07T09:42:32;14.10;99.90
6307;DHT22;3186;54.062;9.962;2023-05-07T09:48:24;14.00;99.90
6307;DHT22;3186;54.062;9.962;2023-05-07T09:51:29;14.10;99.90
6307;DHT22;3186;54.062;9.962;2023-05-07T09:54:05;14.60;99.90
6307;DHT22;3186;54.062;9.962;2023-05-07T09:57:16;14.50;99.90
6307;DHT22;3186;54.062;9.962;2023-05-07T10:00:02;14.50;99.90
6307;DHT22;3186;54.062;9.962;2023-05-07T10:05:51;14.90;99.90
6307;DHT22;3186;54.062;9.962;2023-05-07T10:08:45;14.50;99.90
6307;DHT22;3186;54.062;9.962;2023-05-07T10:11:35;16.60;98.90
6307;DHT22;3186;54.062;9.962;2023-05-07T10:14:13;14.80;99.90
6307;DHT22;3186;54.062;9.962;2023-05-07T10:16:43;15.30;91.70
6307;DHT22;3186;54.062;9.962;2023-05-07T10:19:22;16.30;98.00
6307;DHT22;3186;54.062;9.962;2023-05-07T10:22:27;15.40;91.30
6307;DHT22;3186;54.062;9.962;2023-05-07T10:29:37;15.50;85.50
6307;DHT22;3186;54.062;9.962;2023-05-07T10:32:56;15.80;93.40
6307;DHT22;3186;54.062;9.962;2023-05-07T10:39:59;16.00;85.30
6307;DHT22;3186;54.062;9.962;2023-05-07T10:43:13;16.40;78.80
6307;DHT22;3186;54.062;9.962;2023-05-07T10:46:36;17.10;56.20
6307;DHT22;3186;54.062;9.962;2023-05-07T10:49:33;17.40;60.40
6307;DHT22;3186;54.062;9.962;2023-05-07T10:56:43;17.40;68.80
6307;DHT22;3186;54.062;9.962;2023-05-07T10:59:35;19.10;54.70
6307;DHT22;3186;54.062;9.962;2023-05-07T11:17:16;17.50;61.40
6307;DHT22;3186;54.062;9.962;2023-05-07T11:20:19;18.00;82.00
6307;DHT22;3186;54.062;9.962;2023-05-07T11:28:03;17.30;38.00
6307;DHT22;3186;54.062;9.962;2023-05-07T11:41:49;18.80;57.60
6307;DHT22;3186;54.062;9.962;2023-05-07T11:44:53;18.30;54.90
6307;DHT22;3186;54.062;9.962;2023-05-07T11:57:50;19.00;35.60
6307;DHT22;3186;54.062;9.962;2023-05-07T12:01:13;18.90;37.90
6307;DHT22;3186;54.062;9.962;2023-05-07T12:15:04;18.60;15.20
6307;DHT22;3186;54.062;9.962;2023-05-07T12:40:56;20.50;52.60
6307;DHT22;3186;54.062;9.962;2023-05-07T12:43:26;20.30;17.20
6307;DHT22;3186;54.062;9.962;2023-05-07T12:45:54;20.00;11.20
6307;DHT22;3186;54.062;9.962;2023-05-07T12:48:21;20.20;39.60
6307;DHT22;3186;54.062;9.962;2023-05-07T12:50:51;20.40;14.00
6307;DHT22;3186;54.062;9.962;2023-05-07T12:53:17;20.30;4.80
6307;DHT22;3186;54.062;9.962;2023-05-07T12:55:50;20.40;49.30
6307;DHT22;3186;54.062;9.962;2023-05-07T13:00:42;20.60;58.50
6307;DHT22;3186;54.062;9.962;2023-05-07T13:03:09;20.80;54.60
6307;DHT22;3186;54.062;9.962;2023-05-07T13:05:35;21.10;57.30
6307;DHT22;3186;54.062;9.962;2023-05-07T13:08:01;20.60;47.60
6307;DHT22;3186;54.062;9.962;2023-05-07T13:10:27;20.70;28.40
6307;DHT22;3186;54.062;9.962;2023-05-07T13:12:56;20.90;37.50
6307;DHT22;3186;54.062;9.962;2023-05-07T13:15:22;21.00;13.50
6307;DHT22;3186;54.062;9.962;2023-05-07T13:17:48;20.90;6.40
6307;DHT22;3186;54.062;9.962;2023-05-07T13:20:14;20.80;18.10
6307;DHT22;3186;54.062;9.962;2023-05-07T13:22:41;20.90;31.00
6307;DHT22;3186;54.062;9.962;2023-05-07T13:25:07;20.80;48.60
6307;DHT22;3186;54.062;9.962;2023-05-07T13:27:33;20.70;13.20
6307;DHT22;3186;54.062;9.962;2023-05-07T13:30:03;20.70;30.00
6307;DHT22;3186;54.062;9.962;2023-05-07T13:32:29;20.90;46.80
6307;DHT22;3186;54.062;9.962;2023-05-07T13:34:55;21.00;17.60
6307;DHT22;3186;54.062;9.962;2023-05-07T13:37:21;20.90;30.30
6307;DHT22;3186;54.062;9.962;2023-05-07T13:39:47;20.90;6.70
6307;DHT22;3186;54.062;9.962;2023-05-07T13:42:13;20.80;19.90
6307;DHT22;3186;54.062;9.962;2023-05-07T13:44:38;20.50;1.00
6307;DHT22;3186;54.062;9.962;2023-05-07T13:47:05;20.70;50.40
6307;DHT22;3186;54.062;9.962;2023-05-07T13:49:31;20.90;17.20
6307;DHT22;3186;54.062;9.962;2023-05-07T13:51:57;20.90;16.00
6307;DHT22;3186;54.062;9.962;2023-05-07T13:54:22;21.10;10.60
6307;DHT22;3186;54.062;9.962;2023-05-07T13:56:48;20.80;27.40
6307;DHT22;3186;54.062;9.962;2023-05-07T13:59:14;21.10;34.00
6307;DHT22;3186;54.062;9.962;2023-05-07T14:01:40;20.80;10.10
6307;DHT22;3186;54.062;9.962;2023-05-07T14:04:07;20.80;9.00
6307;DHT22;3186;54.062;9.962;2023-05-07T14:06:33;21.00;24.50
6307;DHT22;3186;54.062;9.962;2023-05-07T14:08:59;20.90;8.60
6307;DHT22;3186;54.062;9.962;2023-05-07T14:11:25;20.90;5.10
6307;DHT22;3186;54.062;9.962;2023-05-07T14:13:51;21.00;20.70
6307;DHT22;3186;54.062;9.962;2023-05-07T14:16:17;21.10;13.30
6307;DHT22;3186;54.062;9.962;2023-05-07T14:18:42;21.20;13.40
6307;DHT22;3186;54.062;9.962;2023-05-07T14:21:08;21.20;1.00
6307;DHT22;3186;54.062;9.962;2023-05-07T14:23:35;20.90;16.50
6307;DHT22;3186;54.062;9.962;2023-05-07T14:26:01;21.30;6.20
6307;DHT22;3186;54.062;9.962;2023-05-07T14:28:27;21.30;31.70
6307;DHT22;3186;54.062;9.962;2023-05-07T14:30:53;21.30;15.70
6307;DHT22;3186;54.062;9.962;2023-05-07T14:33:18;21.70;11.50
6307;DHT22;3186;54.062;9.962;2023-05-07T14:35:44;21.30;14.90
6307;DHT22;3186;54.062;9.962;2023-05-07T14:38:14;21.50;26.40
6307;DHT22;3186;54.062;9.962;2023-05-07T14:40:41;21.70;31.00
6307;DHT22;3186;54.062;9.962;2023-05-07T14:43:06;21.40;27.20
6307;DHT22;3186;54.062;9.962;2023-05-07T14:45:32;21.80;31.90
6307;DHT22;3186;54.062;9.962;2023-05-07T14:47:58;21.80;29.40
6307;DHT22;3186;54.062;9.962;2023-05-07T14:50:24;21.50;2.30
6307;DHT22;3186;54.062;9.962;2023-05-07T14:52:49;21.70;26.50
6307;DHT22;3186;54.062;9.962;2023-05-07T14:55:15;21.70;26.10
6307;DHT22;3186;54.062;9.962;2023-05-07T14:57:41;21.80;23.20
6307;DHT22;3186;54.062;9.962;2023-05-07T15:00:08;22.10;2.60
6307;DHT22;3186;54.062;9.962;2023-05-07T15:02:35;22.20;33.50
6307;DHT22;3186;54.062;9.962;2023-05-07T15:05:00;22.50;23.50
6307;DHT22;3186;54.062;9.962;2023-05-07T15:07:26;22.40;26.80
6307;DHT22;3186;54.062;9.962;2023-05-07T15:09:52;22.40;21.10
6307;DHT22;3186;54.062;9.962;2023-05-07T15:12:18;22.50;19.10
6307;DHT22;3186;54.062;9.962;2023-05-07T15:14:44;22.50;11.30
6307;DHT22;3186;54.062;9.962;2023-05-07T15:17:11;22.60;27.80
6307;DHT22;3186;54.062;9.962;2023-05-07T15:19:37;22.60;4.60
6307;DHT22;3186;54.062;9.962;2023-05-07T15:22:04;22.20;14.70
6307;DHT22;3186;54.062;9.962;2023-05-07T15:24:30;22.60;33.10
6307;DHT22;3186;54.062;9.962;2023-05-07T15:26:56;22.50;2.50
6307;DHT22;3186;54.062;9.962;2023-05-07T15:29:23;22.60;27.50
6307;DHT22;3186;54.062;9.962;2023-05-07T15:31:50;22.70;21.20
6307;DHT22;3186;54.062;9.962;2023-05-07T15:34:17;22.60;7.40
6307;DHT22;3186;54.062;9.962;2023-05-07T15:36:43;22.40;14.50
6307;DHT22;3186;54.062;9.962;2023-05-07T15:39:09;22.30;12.40
6307;DHT22;3186;54.062;9.962;2023-05-07T15:41:35;22.70;21.30
6307;DHT22;3186;54.062;9.962;2023-05-07T15:44:02;22.90;21.80
6307;DHT22;3186;54.062;9.962;2023-05-07T15:46:28;22.70;25.50
6307;DHT22;3186;54.062;9.962;2023-05-07T15:48:54;23.00;28.50
6307;DHT22;3186;54.062;9.962;2023-05-07T15:51:21;22.70;22.40
6307;DHT22;3186;54.062;9.962;2023-05-07T15:53:48;22.50;28.60
6307;DHT22;3186;54.062;9.962;2023-05-07T15:56:14;22.30;21.10
6307;DHT22;3186;54.062;9.962;2023-05-07T15:58:40;22.60;11.00
6307;DHT22;3186;54.062;9.962;2023-05-07T16:01:05;22.80;11.50
6307;DHT22;3186;54.062;9.962;2023-05-07T16:03:31;22.80;21.90
6307;DHT22;3186;54.062;9.962;2023-05-07T16:05:57;22.40;5.60
6307;DHT22;3186;54.062;9.962;2023-05-07T16:08:25;22.70;20.00
6307;DHT22;3186;54.062;9.962;2023-05-07T16:10:51;22.50;17.60
6307;DHT22;3186;54.062;9.962;2023-05-07T16:13:17;22.50;8.50
6307;DHT22;3186;54.062;9.962;2023-05-07T16:15:45;22.90;22.90
6307;DHT22;3186;54.062;9.962;2023-05-07T16:18:11;22.70;20.80
6307;DHT22;3186;54.062;9.962;2023-05-07T16:20:40;22.90;26.40
6307;DHT22;3186;54.062;9.962;2023-05-07T16:23:06;23.00;24.30
6307;DHT22;3186;54.062;9.962;2023-05-07T16:25:32;23.10;27.60
6307;DHT22;3186;54.062;9.962;2023-05-07T16:27:58;23.00;23.50
6307;DHT22;3186;54.062;9.962;2023-05-07T16:30:23;22.90;20.00
6307;DHT22;3186;54.062;9.962;2023-05-07T16:32:49;23.10;19.80
6307;DHT22;3186;54.062;9.962;2023-05-07T16:35:15;23.30;23.00
6307;DHT22;3186;54.062;9.962;2023-05-07T16:37:41;23.30;6.20
6307;DHT22;3186;54.062;9.962;2023-05-07T16:40:07;23.10;11.90
6307;DHT22;3186;54.062;9.962;2023-05-07T16:42:34;23.10;9.20
6307;DHT22;3186;54.062;9.962;2023-05-07T16:45:01;22.90;12.30
6307;DHT22;3186;54.062;9.962;2023-05-07T16:47:27;23.10;21.80
6307;DHT22;3186;54.062;9.962;2023-05-07T16:49:53;22.90;1.00
6307;DHT22;3186;54.062;9.962;2023-05-07T16:52:19;22.80;22.20
6307;DHT22;3186;54.062;9.962;2023-05-07T16:54:45;22.80;15.30
6307;DHT22;3186;54.062;9.962;2023-05-07T16:57:11;22.80;14.50
6307;DHT22;3186;54.062;9.962;2023-05-07T16:59:37;22.80;18.70
6307;DHT22;3186;54.062;9.962;2023-05-07T17:02:03;22.90;8.70
6307;DHT22;3186;54.062;9.962;2023-05-07T17:04:28;22.90;12.30
6307;DHT22;3186;54.062;9.962;2023-05-07T17:06:55;22.80;18.30
6307;DHT22;3186;54.062;9.962;2023-05-07T17:09:22;22.80;19.20
6307;DHT22;3186;54.062;9.962;2023-05-07T17:11:48;22.80;21.80
6307;DHT22;3186;54.062;9.962;2023-05-07T17:14:13;22.60;17.20
6307;DHT22;3186;54.062;9.962;2023-05-07T17:16:39;22.60;22.10
6307;DHT22;3186;54.062;9.962;2023-05-07T17:19:05;22.70;20.90
6307;DHT22;3186;54.062;9.962;2023-05-07T17:21:31;22.70;20.60
6307;DHT22;3186;54.062;9.962;2023-05-07T17:23:57;22.60;19.80
6307;DHT22;3186;54.062;9.962;2023-05-07T17:26:23;22.40;21.30
6307;DHT22;3186;54.062;9.962;2023-05-07T17:28:49;22.00;20.30
6307;DHT22;3186;54.062;9.962;2023-05-07T17:31:15;22.20;22.20
6307;DHT22;3186;54.062;9.962;2023-05-07T17:33:40;22.10;4.50
6307;DHT22;3186;54.062;9.962;2023-05-07T17:36:06;22.10;13.80
6307;DHT22;3186;54.062;9.962;2023-05-07T17:38:34;21.80;10.30
6307;DHT22;3186;54.062;9.962;2023-05-07T17:41:00;21.90;21.40
6307;DHT22;3186;54.062;9.962;2023-05-07T17:43:26;21.90;20.60
6307;DHT22;3186;54.062;9.962;2023-05-07T17:45:52;21.70;15.70
6307;DHT22;3186;54.062;9.962;2023-05-07T17:48:18;21.70;21.30
6307;DHT22;3186;54.062;9.962;2023-05-07T17:50:45;21.60;8.80
6307;DHT22;3186;54.062;9.962;2023-05-07T17:53:11;21.50;20.90
6307;DHT22;3186;54.062;9.962;2023-05-07T17:55:41;21.50;20.40